createdAt,value
2019-06-20T00:01:25.916Z,5.30
2019-06-20T00:03:54.954Z,6.00
2019-06-20T00:06:23.534Z,5.62
2019-06-20T00:08:51.753Z,5.85
2019-06-20T00:11:20.159Z,6.12
2019-06-20T00:13:48.721Z,5.58
2019-06-20T00:16:16.931Z,5.47
2019-06-20T00:18:45.936Z,6.47
2019-06-20T00:21:14.242Z,7.20
2019-06-20T00:23:42.487Z,7.17
2019-06-20T00:26:10.724Z,7.37
2019-06-20T00:28:40.960Z,8.08
2019-06-20T00:31:09.221Z,7.97
2019-06-20T00:33:37.448Z,7.87
2019-06-20T00:36:06.045Z,9.13
2019-06-20T00:38:34.399Z,7.90
2019-06-20T00:41:02.735Z,8.00
2019-06-20T00:43:30.965Z,8.60
2019-06-20T00:45:59.277Z,8.70
2019-06-20T00:48:28.625Z,7.17
2019-06-20T00:50:56.913Z,8.33
2019-06-20T00:53:25.134Z,8.43
2019-06-20T00:55:53.753Z,7.85
2019-06-20T00:58:21.996Z,7.42
2019-06-20T01:00:50.337Z,8.65
2019-06-20T01:03:18.628Z,8.18
2019-06-20T01:05:47.957Z,8.60
2019-06-20T01:08:16.392Z,8.20
2019-06-20T01:10:45.064Z,7.95
2019-06-20T01:13:14.415Z,7.62
2019-06-20T01:15:42.676Z,7.67
2019-06-20T01:18:10.891Z,7.67
2019-06-20T01:20:40.676Z,8.60
2019-06-20T01:23:09.980Z,8.93
2019-06-20T01:25:42.282Z,7.95
2019-06-20T01:28:10.694Z,8.00
2019-06-20T01:30:38.905Z,7.30
2019-06-20T01:33:08.321Z,7.72
2019-06-20T01:35:36.602Z,8.20
2019-06-20T01:38:04.920Z,7.70
2019-06-20T01:40:33.226Z,7.60
2019-06-20T01:43:01.622Z,7.55
2019-06-20T01:45:31.008Z,7.30
2019-06-20T01:47:59.235Z,7.58
2019-06-20T01:50:29.390Z,7.65
2019-06-20T01:52:57.606Z,7.22
2019-06-20T01:55:25.849Z,7.65
2019-06-20T01:57:54.113Z,7.72
2019-06-20T02:00:45.445Z,8.08
2019-06-20T02:03:14.535Z,7.85
2019-06-20T02:05:43.932Z,8.03
2019-06-20T02:08:12.488Z,8.13
2019-06-20T02:10:40.713Z,8.30
2019-06-20T02:13:08.945Z,8.90
2019-06-20T02:15:37.783Z,8.65
2019-06-20T02:18:05.992Z,8.98
2019-06-20T02:20:40.379Z,8.78
2019-06-20T02:23:08.712Z,8.75
2019-06-20T02:25:36.951Z,8.38
2019-06-20T02:28:05.186Z,9.13
2019-06-20T02:30:33.412Z,9.63
2019-06-20T02:33:01.640Z,9.53
2019-06-20T02:35:30.715Z,9.25
2019-06-20T02:37:58.939Z,9.38
2019-06-20T02:40:27.187Z,8.35
2019-06-20T02:42:55.442Z,9.08
2019-06-20T02:45:23.694Z,8.93
2019-06-20T02:47:52.307Z,9.15
2019-06-20T02:50:20.757Z,8.38
2019-06-20T02:52:48.981Z,8.38
2019-06-20T02:55:18.623Z,8.93
2019-06-20T02:57:47.468Z,9.23
2019-06-20T03:00:15.714Z,9.53
2019-06-20T03:02:43.940Z,8.23
2019-06-20T03:05:12.220Z,8.85
2019-06-20T03:07:40.480Z,7.40
2019-06-20T03:10:08.723Z,8.45
2019-06-20T03:12:36.942Z,7.78
2019-06-20T03:15:05.896Z,7.75
2019-06-20T03:17:34.232Z,7.45
2019-06-20T03:20:02.646Z,7.42
2019-06-20T03:22:32.040Z,7.03
2019-06-20T03:25:00.308Z,6.60
2019-06-20T03:27:28.545Z,7.17
2019-06-20T03:29:57.212Z,7.78
2019-06-20T03:32:25.447Z,8.18
2019-06-20T03:34:53.666Z,7.17
2019-06-20T03:37:22.497Z,7.15
2019-06-20T03:39:50.748Z,7.53
2019-06-20T03:42:18.967Z,7.85
2019-06-20T03:45:01.223Z,7.95
2019-06-20T03:47:17.295Z,9.23
2019-06-20T03:49:45.517Z,8.60
2019-06-20T03:52:14.743Z,7.87
2019-06-20T03:54:42.963Z,8.85
2019-06-20T03:57:12.404Z,9.53
2019-06-20T03:59:40.726Z,9.30
2019-06-20T04:02:11.169Z,8.63
2019-06-20T04:04:39.395Z,8.68
2019-06-20T04:07:07.615Z,8.13
2019-06-20T04:09:35.850Z,8.05
2019-06-20T04:12:04.313Z,7.83
2019-06-20T04:14:32.517Z,7.40
2019-06-20T04:17:00.828Z,8.48
2019-06-20T04:19:29.255Z,9.40
2019-06-20T04:21:57.498Z,9.30
2019-06-20T04:24:27.863Z,8.93
2019-06-20T04:26:55.728Z,10.18
2019-06-20T04:29:24.024Z,9.38
2019-06-20T04:31:52.280Z,11.05
2019-06-20T04:34:20.519Z,10.78
2019-06-20T04:36:48.757Z,10.32
2019-06-20T04:39:19.597Z,11.08
2019-06-20T04:41:46.979Z,12.10
2019-06-20T04:44:15.539Z,12.58
2019-06-20T04:46:48.522Z,11.90
2019-06-20T04:49:19.715Z,13.10
2019-06-20T04:51:46.735Z,13.25
2019-06-20T04:54:15.043Z,13.15
2019-06-20T04:56:43.291Z,11.97
2019-06-20T04:59:11.779Z,13.38
2019-06-20T05:01:40.028Z,13.18
2019-06-20T05:04:08.260Z,12.00
2019-06-20T05:06:36.783Z,11.97
2019-06-20T05:09:07.340Z,11.93
2019-06-20T05:11:35.783Z,13.00
2019-06-20T05:14:04.018Z,12.53
2019-06-20T05:16:32.359Z,13.58
2019-06-20T05:19:01.039Z,12.98
2019-06-20T05:21:29.759Z,12.78
2019-06-20T05:23:58.298Z,13.68
2019-06-20T05:26:26.713Z,14.65
2019-06-20T05:28:55.199Z,14.05
2019-06-20T05:31:23.606Z,13.08
2019-06-20T05:33:52.166Z,12.98
2019-06-20T05:36:20.433Z,12.90
2019-06-20T05:39:00.392Z,13.48
2019-06-20T05:41:27.782Z,15.80
2019-06-20T05:44:05.589Z,14.98
2019-06-20T05:46:33.849Z,14.45
2019-06-20T05:49:02.119Z,16.60
2019-06-20T05:51:30.422Z,15.88
2019-06-20T05:53:58.635Z,15.83
2019-06-20T05:56:26.860Z,17.73
2019-06-20T05:58:55.076Z,15.00
2019-06-20T06:01:23.342Z,14.98
2019-06-20T06:03:51.573Z,16.25
2019-06-20T06:06:19.945Z,17.82
2019-06-20T06:08:48.537Z,18.85
2019-06-20T06:11:17.463Z,23.32
2019-06-20T06:13:45.709Z,24.63
2019-06-20T06:16:25.648Z,28.40
2019-06-20T06:18:43.861Z,30.45
2019-06-20T06:21:12.080Z,26.55
2019-06-20T06:23:40.370Z,27.67
2019-06-20T06:26:08.689Z,29.60
2019-06-20T06:28:36.962Z,27.02
2019-06-20T06:31:05.311Z,26.70
2019-06-20T06:33:33.540Z,27.98
2019-06-20T06:36:01.813Z,27.70
2019-06-20T06:38:30.065Z,35.85
2019-06-20T07:12:26.567Z,47.38
2019-06-20T07:14:54.792Z,43.42
2019-06-20T07:17:23.034Z,48.38
2019-06-20T07:19:51.263Z,47.20
2019-06-20T07:38:32.288Z,48.58
2019-06-20T07:41:00.537Z,43.92
2019-06-20T07:43:28.748Z,43.33
2019-06-20T07:46:02.586Z,41.20
2019-06-20T07:48:26.968Z,41.53
2019-06-20T07:50:55.271Z,36.77
2019-06-20T07:53:23.490Z,40.58
2019-06-20T07:55:51.829Z,37.53
2019-06-20T07:58:20.047Z,38.28
2019-06-20T08:00:48.285Z,44.63
2019-06-20T08:03:16.634Z,42.25
2019-06-20T08:05:44.847Z,44.27
2019-06-20T08:08:13.080Z,45.45
2019-06-20T08:10:41.889Z,43.40
2019-06-20T08:13:10.275Z,46.13
2019-06-20T08:15:38.546Z,44.13
2019-06-20T08:18:06.940Z,45.48
2019-06-20T08:20:35.180Z,42.70
2019-06-20T08:23:03.394Z,36.85
2019-06-20T08:25:31.630Z,36.33
2019-06-20T08:28:00.778Z,33.90
2019-06-20T08:30:30.685Z,29.18
2019-06-20T08:33:01.269Z,29.55
2019-06-20T08:35:30.088Z,23.95
2019-06-20T08:37:59.336Z,21.68
2019-06-20T08:40:29.536Z,25.12
2019-06-20T08:42:59.847Z,21.93
2019-06-20T08:45:29.607Z,23.15
2019-06-20T08:47:58.317Z,26.07
2019-06-20T08:50:26.731Z,25.65
2019-06-20T08:52:56.073Z,27.50
2019-06-20T08:55:25.193Z,30.05
2019-06-20T08:57:55.710Z,28.02
2019-06-20T09:00:23.752Z,26.00
2019-06-20T09:02:52.051Z,26.15
2019-06-20T09:05:20.439Z,26.42
2019-06-20T09:07:49.143Z,24.23
2019-06-20T09:10:17.366Z,29.32
2019-06-20T09:12:46.344Z,26.73
2019-06-20T09:15:14.657Z,25.25
2019-06-20T09:17:42.894Z,27.62
2019-06-20T09:20:12.222Z,29.87
2019-06-20T09:22:40.437Z,29.72
2019-06-20T09:25:08.714Z,25.50
2019-06-20T09:27:37.402Z,27.22
2019-06-20T09:30:09.518Z,27.07
2019-06-20T09:32:38.300Z,28.05
2019-06-20T09:35:07.594Z,27.00
2019-06-20T09:37:36.962Z,26.65
2019-06-20T09:40:06.033Z,25.52
2019-06-20T09:42:36.839Z,25.88
2019-06-20T09:45:07.655Z,27.35
2019-06-20T09:47:35.902Z,28.00
2019-06-20T09:50:09.261Z,27.73
2019-06-20T09:52:37.613Z,28.60
2019-06-20T09:55:08.939Z,27.95
2019-06-20T09:57:37.203Z,27.00
2019-06-20T10:00:11.007Z,25.17
2019-06-20T10:02:40.098Z,24.55
2019-06-20T10:05:08.502Z,30.43
2019-06-20T10:07:36.904Z,23.87
2019-06-20T10:10:08.169Z,26.45
2019-06-20T10:12:36.712Z,24.98
2019-06-20T10:15:22.643Z,29.45
2019-06-20T10:17:51.207Z,27.60
2019-06-20T10:20:20.282Z,25.12
2019-06-20T10:22:48.582Z,27.40
2019-06-20T10:25:16.844Z,26.42
2019-06-20T10:27:46.632Z,30.88
2019-06-20T10:30:15.207Z,27.25
2019-06-20T10:32:45.205Z,30.35
2019-06-20T10:35:13.752Z,27.17
2019-06-20T10:37:45.067Z,31.70
2019-06-20T10:40:13.026Z,28.95
2019-06-20T10:42:41.313Z,27.27
2019-06-20T10:45:10.058Z,29.45
2019-06-20T10:47:38.290Z,30.80
2019-06-20T10:50:06.770Z,26.55
2019-06-20T10:52:34.988Z,23.60
2019-06-20T10:55:05.154Z,20.75
2019-06-20T10:57:33.444Z,86.63
2019-06-20T11:00:01.683Z,109.87
2019-06-20T11:02:29.973Z,40.25
2019-06-20T11:04:58.234Z,148.47
2019-06-20T11:07:26.851Z,13.22
2019-06-20T11:09:55.103Z,18.48
2019-06-20T11:12:23.457Z,16.57
2019-06-20T11:14:52.193Z,16.17
2019-06-20T11:17:20.413Z,11.75
2019-06-20T11:19:48.719Z,24.87
2019-06-20T11:22:17.020Z,10.30
2019-06-20T11:24:45.318Z,8.95
2019-06-20T11:27:13.644Z,7.97
2019-06-20T11:29:42.123Z,8.45
2019-06-20T11:32:10.330Z,10.85
2019-06-20T11:34:39.395Z,8.65
2019-06-20T11:37:07.770Z,9.13
2019-06-20T11:39:37.325Z,9.18
2019-06-20T11:42:05.834Z,9.75
2019-06-20T11:44:35.356Z,8.88
2019-06-20T11:47:04.129Z,8.63
2019-06-20T11:49:34.542Z,7.08
2019-06-20T11:52:02.390Z,7.62
2019-06-20T11:54:31.873Z,9.38
2019-06-20T11:57:00.586Z,9.30
2019-06-20T11:59:28.835Z,7.22
2019-06-20T12:01:57.114Z,9.10
2019-06-20T12:04:25.455Z,8.50
2019-06-20T12:06:55.378Z,8.08
2019-06-20T12:09:23.801Z,7.62
2019-06-20T12:11:52.637Z,10.13
2019-06-20T12:14:20.865Z,9.58
2019-06-20T12:16:49.249Z,7.80
2019-06-20T12:19:19.111Z,9.40
2019-06-20T12:21:49.005Z,9.75
2019-06-20T12:24:17.435Z,10.90
2019-06-20T12:26:46.870Z,11.65
2019-06-20T12:29:15.164Z,12.07
2019-06-20T12:31:43.464Z,9.10
2019-06-20T12:34:11.675Z,10.05
2019-06-20T12:36:40.955Z,9.30
2019-06-20T12:39:09.891Z,10.72
2019-06-20T12:41:38.718Z,11.35
2019-06-20T12:44:08.617Z,12.05
2019-06-20T12:46:36.810Z,12.53
2019-06-20T12:49:05.166Z,10.60
2019-06-20T12:51:33.418Z,10.00
2019-06-20T12:54:01.727Z,9.38
2019-06-20T12:56:29.959Z,10.23
2019-06-20T12:58:58.189Z,9.00
2019-06-20T13:01:36.774Z,8.38
2019-06-20T13:03:56.372Z,8.93
2019-06-20T13:06:24.596Z,9.18
2019-06-20T13:08:52.843Z,8.10
2019-06-20T13:11:21.142Z,8.45
2019-06-20T13:13:49.453Z,8.15
2019-06-20T13:16:17.675Z,9.38
2019-06-20T13:18:46.271Z,10.72
2019-06-20T13:21:14.731Z,8.20
2019-06-20T13:23:43.224Z,7.85
2019-06-20T13:26:11.575Z,9.28
2019-06-20T13:28:59.177Z,9.53
2019-06-20T13:31:09.792Z,9.88
2019-06-20T13:33:39.178Z,8.13
2019-06-20T13:36:08.549Z,8.58
2019-06-20T13:38:37.995Z,8.70
2019-06-20T13:41:06.884Z,8.05
2019-06-20T13:43:35.218Z,8.30
2019-06-20T13:46:03.483Z,9.05
2019-06-20T13:48:31.727Z,7.55
2019-06-20T13:51:00.775Z,10.45
2019-06-20T13:53:32.706Z,8.18
2019-06-20T13:56:01.106Z,8.27
2019-06-20T13:58:29.333Z,8.28
2019-06-20T14:00:57.572Z,22.15
2019-06-20T14:03:25.802Z,13.65
2019-06-20T14:05:54.089Z,28.50
2019-06-20T14:08:22.305Z,13.55
2019-06-20T14:10:51.923Z,25.05
2019-06-20T14:13:20.840Z,16.85
2019-06-20T14:15:51.147Z,10.90
2019-06-20T14:18:19.661Z,11.18
2019-06-20T14:20:48.505Z,11.95
2019-06-20T14:23:16.924Z,11.60
2019-06-20T14:25:46.326Z,10.13
2019-06-20T14:28:14.757Z,9.88
2019-06-20T14:30:44.639Z,11.45
2019-06-20T14:33:13.055Z,9.93
2019-06-20T14:35:42.343Z,14.15
2019-06-20T14:38:11.521Z,9.55
2019-06-20T14:40:40.306Z,9.10
2019-06-20T14:43:08.524Z,10.28
2019-06-20T14:45:38.090Z,34.67
2019-06-20T14:48:06.755Z,20.92
2019-06-20T14:50:34.965Z,18.00
2019-06-20T14:53:03.177Z,12.03
2019-06-20T14:55:31.420Z,10.93
2019-06-20T14:57:59.858Z,11.33
2019-06-20T15:00:28.339Z,10.50
2019-06-20T15:02:58.548Z,11.00
2019-06-20T15:05:26.504Z,17.75
2019-06-20T15:07:55.858Z,12.20
2019-06-20T15:10:24.444Z,12.20
2019-06-20T15:12:53.784Z,9.13
2019-06-20T15:15:23.428Z,8.28
2019-06-20T15:17:54.084Z,9.13
2019-06-20T15:20:22.848Z,9.18
2019-06-20T15:22:52.570Z,9.10
2019-06-20T15:25:21.745Z,11.10
2019-06-20T15:27:53.188Z,9.80
2019-06-20T15:30:21.086Z,10.10
2019-06-20T15:33:01.061Z,10.20
2019-06-20T15:35:19.618Z,9.43
2019-06-20T15:37:49.662Z,15.63
2019-06-20T15:40:17.853Z,15.70
2019-06-20T15:42:47.130Z,10.05
2019-06-20T15:45:16.165Z,10.05
2019-06-20T15:47:44.399Z,9.53
2019-06-20T15:50:13.175Z,9.90
2019-06-20T15:52:41.402Z,11.05
2019-06-20T15:55:10.042Z,10.70
2019-06-20T15:57:38.454Z,10.93
2019-06-20T16:00:10.960Z,12.20
2019-06-20T16:02:39.269Z,13.80
2019-06-20T16:05:09.021Z,13.88
2019-06-20T16:07:38.498Z,12.82
2019-06-20T16:10:08.444Z,14.85
2019-06-20T16:12:36.896Z,14.83
2019-06-20T16:15:09.803Z,12.28
2019-06-20T16:17:38.128Z,28.07
2019-06-20T16:20:06.495Z,32.42
2019-06-20T16:22:34.844Z,11.75
2019-06-20T16:25:03.764Z,9.25
2019-06-20T16:27:31.978Z,9.98
2019-06-20T16:30:00.227Z,7.37
2019-06-20T16:32:28.517Z,7.00
2019-06-20T16:34:56.747Z,6.17
2019-06-20T16:37:24.957Z,6.03
2019-06-20T16:39:53.231Z,5.58
2019-06-20T16:42:21.677Z,5.37
2019-06-20T16:44:49.961Z,5.40
2019-06-20T16:47:19.301Z,5.35
2019-06-20T16:49:47.578Z,5.40
2019-06-20T16:52:15.786Z,5.55
2019-06-20T16:54:44.030Z,6.03
2019-06-20T16:57:12.350Z,5.53
2019-06-20T16:59:40.656Z,5.00
2019-06-20T17:02:08.859Z,5.30
2019-06-20T17:04:37.143Z,5.58
2019-06-20T17:07:05.464Z,6.58
2019-06-20T17:09:33.794Z,6.05
2019-06-20T17:12:02.241Z,6.00
2019-06-20T17:14:30.451Z,5.97
2019-06-20T17:16:58.786Z,7.65
2019-06-20T17:19:27.067Z,6.37
2019-06-20T17:21:55.330Z,6.30
2019-06-20T17:24:23.658Z,7.40
2019-06-20T17:26:51.890Z,7.03
2019-06-20T17:29:20.165Z,7.05
2019-06-20T17:31:48.422Z,6.95
2019-06-20T17:34:16.721Z,6.70
2019-06-20T17:36:45.003Z,6.70
2019-06-20T17:39:13.250Z,7.37
2019-06-20T17:41:54.379Z,8.13
2019-06-20T17:44:11.500Z,6.30
2019-06-20T17:46:39.733Z,6.75
2019-06-20T17:49:08.059Z,7.40
2019-06-20T17:51:36.290Z,6.65
2019-06-20T17:54:04.546Z,6.50
2019-06-20T17:56:32.763Z,7.70
2019-06-20T17:59:01.240Z,6.85
2019-06-20T18:01:29.458Z,9.95
2019-06-20T18:04:12.637Z,8.50
2019-06-20T18:06:27.872Z,8.70
2019-06-20T18:08:56.219Z,7.53
2019-06-20T18:11:24.537Z,8.58
2019-06-20T18:13:52.851Z,8.13
2019-06-20T18:16:25.435Z,7.95
2019-06-20T18:18:51.554Z,9.35
2019-06-20T18:21:19.874Z,8.95
2019-06-20T18:23:48.151Z,9.40
2019-06-20T18:26:16.393Z,8.70
2019-06-20T18:28:44.704Z,8.60
2019-06-20T18:31:12.908Z,8.10
2019-06-20T18:33:41.139Z,7.53
2019-06-20T18:36:09.430Z,10.90
2019-06-20T18:38:37.684Z,10.58
2019-06-20T18:41:05.873Z,9.25
2019-06-20T18:43:34.112Z,10.10
2019-06-20T18:46:02.545Z,9.18
2019-06-20T18:48:30.843Z,8.43
2019-06-20T18:50:59.066Z,9.10
2019-06-20T18:53:27.287Z,7.92
2019-06-20T18:55:55.741Z,9.35
2019-06-20T18:58:24.216Z,8.03
2019-06-20T19:00:52.423Z,8.60
2019-06-20T19:03:21.461Z,8.95
2019-06-20T19:05:49.843Z,8.25
2019-06-20T19:08:18.323Z,9.55
2019-06-20T19:10:46.502Z,8.48
2019-06-20T19:13:14.728Z,8.83
2019-06-20T19:15:43.054Z,8.20
2019-06-20T19:18:11.335Z,8.60
2019-06-20T19:20:39.701Z,8.45
2019-06-20T19:23:07.999Z,8.75
2019-06-20T19:25:36.216Z,8.75
2019-06-20T19:28:04.484Z,9.08
2019-06-20T19:30:38.870Z,8.28
2019-06-20T19:33:07.142Z,9.15
2019-06-20T19:35:35.515Z,9.05
2019-06-20T19:38:03.784Z,9.48
2019-06-20T19:40:35.269Z,9.28
2019-06-20T19:43:03.517Z,9.80
2019-06-20T19:45:32.187Z,9.30
2019-06-20T19:48:00.576Z,8.95
2019-06-20T19:50:28.822Z,9.35
2019-06-20T19:52:57.030Z,9.45
2019-06-20T19:55:26.433Z,10.05
2019-06-20T19:57:54.864Z,10.58
2019-06-20T20:00:23.210Z,10.53
2019-06-20T20:02:51.595Z,10.65
2019-06-20T20:05:20.168Z,11.00
2019-06-20T20:07:48.643Z,11.50
2019-06-20T20:10:20.189Z,10.72
2019-06-20T20:12:48.845Z,10.65
2019-06-20T20:15:17.240Z,10.50
2019-06-20T20:17:45.523Z,11.50
2019-06-20T20:20:13.798Z,11.55
2019-06-20T20:22:42.069Z,12.07
2019-06-20T20:25:10.291Z,13.93
2019-06-20T20:27:38.615Z,13.68
2019-06-20T20:30:12.704Z,14.53
2019-06-20T20:32:41.372Z,13.70
2019-06-20T20:35:09.615Z,14.75
2019-06-20T20:37:37.934Z,13.75
2019-06-20T20:40:07.700Z,23.20
2019-06-20T20:42:36.451Z,18.70
2019-06-20T20:45:06.896Z,17.12
2019-06-20T20:47:35.268Z,21.40
2019-06-20T20:50:05.496Z,21.95
2019-06-20T20:52:33.747Z,23.85
2019-06-20T20:55:02.265Z,19.50
2019-06-20T20:57:30.522Z,25.40
2019-06-20T20:59:59.216Z,24.85
2019-06-20T21:02:27.458Z,27.40
2019-06-20T21:04:55.680Z,25.80
2019-06-20T21:07:24.073Z,26.10
2019-06-20T21:09:52.322Z,27.80
2019-06-20T21:12:20.568Z,29.18
2019-06-20T21:14:48.810Z,29.00
2019-06-20T21:17:17.041Z,20.85
2019-06-20T21:19:45.349Z,21.62
2019-06-20T21:22:13.611Z,20.65
2019-06-20T21:24:43.374Z,20.75
2019-06-20T21:27:11.860Z,20.65
2019-06-20T21:29:40.110Z,19.35
2019-06-20T21:32:08.608Z,19.90
2019-06-20T21:34:36.899Z,19.98
2019-06-20T21:37:05.176Z,19.27
2019-06-20T21:39:34.202Z,21.68
2019-06-20T21:42:02.837Z,18.62
2019-06-20T21:44:31.042Z,19.20
2019-06-20T21:46:59.287Z,18.87
2019-06-20T21:49:27.498Z,19.12
2019-06-20T21:51:55.713Z,18.98
2019-06-20T21:54:23.950Z,20.43
2019-06-20T21:56:52.254Z,19.77
2019-06-20T21:59:21.523Z,19.00
2019-06-20T22:01:49.752Z,20.97
2019-06-20T22:04:17.979Z,19.20
2019-06-20T22:06:46.216Z,111.10
2019-06-20T22:09:14.448Z,36.03
2019-06-20T22:11:43.885Z,145.40
2019-06-20T22:14:12.118Z,52.60
2019-06-20T22:16:41.339Z,29.55
2019-06-20T22:19:10.562Z,19.15
2019-06-20T22:21:38.790Z,20.55
2019-06-20T22:24:07.015Z,20.05
2019-06-20T22:26:35.249Z,19.35
2019-06-20T22:29:03.532Z,18.77
2019-06-20T22:31:31.808Z,18.32
2019-06-20T22:34:00.031Z,17.62
2019-06-20T22:36:39.648Z,16.75
2019-06-20T22:38:58.195Z,16.55
2019-06-20T22:41:26.491Z,17.05
2019-06-20T22:43:54.767Z,17.40
2019-06-20T22:46:23.002Z,16.37
2019-06-20T22:48:51.318Z,16.37
2019-06-20T22:51:19.545Z,15.98
2019-06-20T22:53:47.830Z,16.97
2019-06-20T22:56:16.646Z,17.27
2019-06-20T22:58:45.396Z,17.05
2019-06-20T23:01:13.605Z,16.97
2019-06-20T23:03:41.857Z,18.17
2019-06-20T23:06:10.117Z,18.02
2019-06-20T23:08:38.402Z,17.37
2019-06-20T23:11:06.669Z,16.52
2019-06-20T23:13:35.089Z,16.07
2019-06-20T23:16:03.372Z,14.40
2019-06-20T23:18:31.684Z,14.38
2019-06-20T23:21:04.922Z,13.62
2019-06-20T23:23:30.807Z,13.15
2019-06-20T23:26:00.769Z,12.82
2019-06-20T23:28:29.012Z,13.78
2019-06-20T23:30:57.246Z,13.62
2019-06-20T23:33:25.640Z,13.45
2019-06-20T23:35:53.955Z,11.80
2019-06-20T23:38:22.239Z,11.40
2019-06-20T23:40:50.478Z,11.28
2019-06-20T23:43:18.730Z,11.15
2019-06-20T23:45:47.027Z,12.15
2019-06-20T23:48:15.343Z,11.33
2019-06-20T23:50:44.457Z,11.43
2019-06-20T23:53:14.379Z,10.38
2019-06-20T23:55:42.771Z,10.72
2019-06-20T23:58:10.997Z,11.60
